PWSweather.com
Personal Weather Stations
Station Observations
WD4JKH
Forsyth, GA 31029

Forsyth, GA 31029

Lat: 33.033225, Lon: -83.927995

Elevation: 709

Station Type: Davis Vantage VUE

High Low Average
Temperature 40.9°F4.9°C 35.1°F1.7°C 37.3°F2.9°C
Dew Point 39.8°F4.3°C 34.3°F1.3°C 36.3°F2.4°C
Winds 13.5 mph 21.7 kmh Calm Calm 6.0 mph ENE9.7 kmh ENE
Wind Gusts 22.0 mph35.4 kmh 1.0 mph1.6 kmh 14.0 mph22.5 kmh
Humidity 97% 94% 96%
Pressure 30.12 in1020.0 mb 29.96 in1014.6 mb -
Precipitation 1.11 in28.2 mm - -
Hour Temp Dew Point Humidity Winds Wind Gusts Pressure Precip Precip Rate Daily Precip Total
12:01 AM 40.9°F4.9°C 39.8°F4.3°C 96% 9.5 mph ENE15.3 kmh ENE 22.0 mph35.4 kmh 30.12 in1020.0 mb 0.04 in1.0 mm 2.40 in61.0 mm 0.95 in24.1 mm
12:06 AM 40.9°F4.9°C 39.8°F4.3°C 96% 6.9 mph ENE11.1 kmh ENE 19.0 mph30.6 kmh 30.12 in1020.0 mb 0.05 in1.3 mm 0.12 in3.0 mm 0.01 in0.3 mm
12:11 AM 40.8°F4.9°C 39.7°F4.3°C 96% 8.2 mph ENE13.2 kmh ENE 19.0 mph30.6 kmh 30.12 in1020.0 mb 0.06 in1.5 mm 0.12 in3.0 mm 0.02 in0.5 mm
12:16 AM 40.7°F4.8°C 39.6°F4.2°C 96% 13.2 mph ENE21.2 kmh ENE 19.0 mph30.6 kmh 30.11 in1019.6 mb 0.07 in1.8 mm 0.12 in3.0 mm 0.04 in1.0 mm
12:21 AM 40.7°F4.8°C 39.6°F4.2°C 96% 8.3 mph ENE13.4 kmh ENE 20.0 mph32.2 kmh 30.11 in1019.6 mb 0.08 in2.0 mm 0.12 in3.0 mm 0.06 in1.5 mm
12:26 AM 40.6°F4.8°C 39.5°F4.2°C 96% 8.6 mph NE13.8 kmh NE 20.0 mph32.2 kmh 30.10 in1019.3 mb 0.10 in2.5 mm 0.24 in6.1 mm 0.08 in2.0 mm
12:31 AM 40.5°F4.7°C 39.4°F4.1°C 96% 9.6 mph ENE15.4 kmh ENE 20.0 mph32.2 kmh 30.09 in1019.0 mb 0.13 in3.3 mm 0.36 in9.1 mm 0.11 in2.8 mm
12:36 AM 40.4°F4.7°C 39.3°F4.1°C 96% 6.8 mph NE10.9 kmh NE 20.0 mph32.2 kmh 30.09 in1019.0 mb 0.14 in3.6 mm 0.12 in3.0 mm 0.12 in3.0 mm
12:41 AM 40.4°F4.7°C 39.3°F4.1°C 96% 4.2 mph NE6.8 kmh NE 19.0 mph30.6 kmh 30.11 in1019.6 mb 0.13 in3.3 mm 0.00 in0.0 mm 0.12 in3.0 mm
12:46 AM 40.4°F4.7°C 39.6°F4.2°C 97% 5.6 mph NE9.0 kmh NE 19.0 mph30.6 kmh 30.11 in1019.6 mb 0.14 in3.6 mm 0.12 in3.0 mm 0.13 in3.3 mm
12:51 AM 40.4°F4.7°C 39.6°F4.2°C 97% 5.7 mph ENE9.2 kmh ENE 15.0 mph24.1 kmh 30.11 in1019.6 mb 0.14 in3.6 mm 0.00 in0.0 mm 0.14 in3.6 mm
12:56 AM 40.3°F4.6°C 39.3°F4.1°C 96% 9.7 mph ENE15.6 kmh ENE 17.0 mph27.4 kmh 30.10 in1019.3 mb 0.15 in3.8 mm 0.12 in3.0 mm 0.15 in3.8 mm
01:01 AM 40.3°F4.6°C 39.2°F4.0°C 96% 10.1 mph ENE16.3 kmh ENE 18.0 mph29.0 kmh 30.09 in1019.0 mb 0.17 in4.3 mm 0.02 in0.5 mm 0.17 in4.3 mm
01:06 AM 40.2°F4.6°C 39.1°F3.9°C 96% 7.3 mph ENE11.7 kmh ENE 18.0 mph29.0 kmh 30.10 in1019.3 mb 0.17 in4.3 mm 0.00 in0.0 mm 0.18 in4.6 mm
01:11 AM 40.2°F4.6°C 39.1°F3.9°C 96% 9.1 mph ENE14.6 kmh ENE 18.0 mph29.0 kmh 30.09 in1019.0 mb 0.17 in4.3 mm 0.00 in0.0 mm 0.19 in4.8 mm
01:16 AM 40.1°F4.5°C 39.0°F3.9°C 96% 7.2 mph ENE11.6 kmh ENE 18.0 mph29.0 kmh 30.08 in1018.6 mb 0.16 in4.1 mm 0.00 in0.0 mm 0.20 in5.1 mm
01:21 AM 40.1°F4.5°C 39.0°F3.9°C 96% 9.2 mph ENE14.8 kmh ENE 17.0 mph27.4 kmh 30.08 in1018.6 mb 0.15 in3.8 mm 0.00 in0.0 mm 0.21 in5.3 mm
01:26 AM 40.0°F4.4°C 38.9°F3.8°C 96% 7.6 mph ENE12.2 kmh ENE 18.0 mph29.0 kmh 30.08 in1018.6 mb 0.14 in3.6 mm 0.00 in0.0 mm 0.23 in5.8 mm
01:31 AM 40.0°F4.4°C 38.9°F3.8°C 96% 4.8 mph E7.7 kmh E 18.0 mph29.0 kmh 30.08 in1018.6 mb 0.14 in3.6 mm 0.00 in0.0 mm 0.25 in6.4 mm
01:36 AM 40.0°F4.4°C 38.9°F3.8°C 96% 6.5 mph NE10.5 kmh NE 18.0 mph29.0 kmh 30.08 in1018.6 mb 0.15 in3.8 mm 0.12 in3.0 mm 0.27 in6.9 mm
01:41 AM 40.0°F4.4°C 39.2°F4.0°C 97% 2.0 mph NE3.2 kmh NE 18.0 mph29.0 kmh 30.08 in1018.6 mb 0.16 in4.1 mm 0.12 in3.0 mm 0.28 in7.1 mm
01:46 AM 40.0°F4.4°C 39.2°F4.0°C 97% 5.4 mph NE8.7 kmh NE 16.0 mph25.7 kmh 30.07 in1018.3 mb 0.16 in4.1 mm 0.00 in0.0 mm 0.29 in7.4 mm
01:51 AM 40.0°F4.4°C 39.2°F4.0°C 97% 9.7 mph ENE15.6 kmh ENE 19.0 mph30.6 kmh 30.07 in1018.3 mb 0.17 in4.3 mm 0.12 in3.0 mm 0.31 in7.9 mm
01:56 AM 39.9°F4.4°C 39.1°F3.9°C 97% 6.6 mph ENE10.6 kmh ENE 19.0 mph30.6 kmh 30.08 in1018.6 mb 0.16 in4.1 mm 0.00 in0.0 mm 0.31 in7.9 mm
02:01 AM 39.9°F4.4°C 39.1°F3.9°C 97% 6.3 mph NE10.1 kmh NE 19.0 mph30.6 kmh 30.07 in1018.3 mb 0.14 in3.6 mm 0.00 in0.0 mm 0.31 in7.9 mm
02:06 AM 39.9°F4.4°C 39.1°F3.9°C 97% 9.8 mph ENE15.8 kmh ENE 19.0 mph30.6 kmh 30.07 in1018.3 mb 0.15 in3.8 mm 0.12 in3.0 mm 0.33 in8.4 mm
02:11 AM 39.9°F4.4°C 39.1°F3.9°C 97% 9.7 mph NE15.6 kmh NE 18.0 mph29.0 kmh 30.07 in1018.3 mb 0.15 in3.8 mm 0.00 in0.0 mm 0.34 in8.6 mm
02:16 AM 39.9°F4.4°C 38.9°F3.8°C 96% 9.3 mph NE15.0 kmh NE 21.0 mph33.8 kmh 30.06 in1017.9 mb 0.15 in3.8 mm 0.00 in0.0 mm 0.35 in8.9 mm
02:21 AM 39.7°F4.3°C 38.6°F3.7°C 96% 10.7 mph NE17.2 kmh NE 21.0 mph33.8 kmh 30.05 in1017.6 mb 0.17 in4.3 mm 0.24 in6.1 mm 0.38 in9.7 mm
02:25 AM 39.6°F4.2°C 38.5°F3.6°C 96% 8.5 mph NE13.7 kmh NE 21.0 mph33.8 kmh 30.05 in1017.6 mb 0.16 in4.1 mm 0.00 in0.0 mm 0.39 in9.9 mm
02:30 AM 39.6°F4.2°C 38.5°F3.6°C 96% 7.9 mph NE12.7 kmh NE 21.0 mph33.8 kmh 30.06 in1017.9 mb 0.16 in4.1 mm 0.00 in0.0 mm 0.40 in10.2 mm
02:35 AM 39.6°F4.2°C 38.5°F3.6°C 96% 6.7 mph NE10.8 kmh NE 17.0 mph27.4 kmh 30.06 in1017.9 mb 0.15 in3.8 mm 0.00 in0.0 mm 0.41 in10.4 mm
02:40 AM 39.5°F4.2°C 38.4°F3.6°C 96% 9.0 mph NE14.5 kmh NE 18.0 mph29.0 kmh 30.06 in1017.9 mb 0.14 in3.6 mm 0.00 in0.0 mm 0.42 in10.7 mm
02:45 AM 39.5°F4.2°C 38.4°F3.6°C 96% 10.4 mph NE16.7 kmh NE 21.0 mph33.8 kmh 30.07 in1018.3 mb 0.15 in3.8 mm 0.12 in3.0 mm 0.44 in11.2 mm
02:50 AM 39.5°F4.2°C 38.4°F3.6°C 96% 10.0 mph NE16.1 kmh NE 21.0 mph33.8 kmh 30.07 in1018.3 mb 0.15 in3.8 mm 0.00 in0.0 mm 0.45 in11.4 mm
02:55 AM 39.5°F4.2°C 38.4°F3.6°C 96% 3.6 mph ENE5.8 kmh ENE 21.0 mph33.8 kmh 30.05 in1017.6 mb 0.16 in4.1 mm 0.12 in3.0 mm 0.47 in11.9 mm
03:00 AM 39.4°F4.1°C 38.3°F3.5°C 96% 5.4 mph NE8.7 kmh NE 21.0 mph33.8 kmh 30.07 in1018.3 mb 0.20 in5.1 mm 0.04 in1.0 mm 0.51 in13.0 mm
03:05 AM 39.4°F4.1°C 38.3°F3.5°C 96% 6.9 mph NE11.1 kmh NE 16.0 mph25.7 kmh 30.06 in1017.9 mb 0.23 in5.8 mm 0.36 in9.1 mm 0.56 in14.2 mm
03:10 AM 39.4°F4.1°C 38.3°F3.5°C 96% 8.6 mph NE13.8 kmh NE 17.0 mph27.4 kmh 30.05 in1017.6 mb 0.24 in6.1 mm 0.12 in3.0 mm 0.58 in14.7 mm
03:15 AM 39.4°F4.1°C 38.3°F3.5°C 96% 9.4 mph NE15.1 kmh NE 22.0 mph35.4 kmh 30.05 in1017.6 mb 0.23 in5.8 mm 0.00 in0.0 mm 0.58 in14.7 mm
03:20 AM 39.4°F4.1°C 38.4°F3.6°C 96% 11.4 mph NE18.3 kmh NE 22.0 mph35.4 kmh 30.05 in1017.6 mb 0.21 in5.3 mm 0.00 in0.0 mm 0.59 in15.0 mm
03:25 AM 39.3°F4.1°C 38.2°F3.4°C 96% 9.1 mph NE14.6 kmh NE 22.0 mph35.4 kmh 30.04 in1017.3 mb 0.21 in5.3 mm 0.00 in0.0 mm 0.60 in15.2 mm
03:30 AM 39.3°F4.1°C 38.2°F3.4°C 96% 9.9 mph NE15.9 kmh NE 21.0 mph33.8 kmh 30.03 in1016.9 mb 0.21 in5.3 mm 0.00 in0.0 mm 0.61 in15.5 mm
03:35 AM 39.3°F4.1°C 38.2°F3.4°C 96% 10.3 mph NE16.6 kmh NE 20.0 mph32.2 kmh 30.03 in1016.9 mb 0.22 in5.6 mm 0.12 in3.0 mm 0.63 in16.0 mm
03:40 AM 39.3°F4.1°C 38.2°F3.4°C 96% 9.7 mph NE15.6 kmh NE 20.0 mph32.2 kmh 30.02 in1016.6 mb 0.22 in5.6 mm 0.00 in0.0 mm 0.64 in16.3 mm
03:45 AM 39.3°F4.1°C 38.2°F3.4°C 96% 8.9 mph NE14.3 kmh NE 22.0 mph35.4 kmh 30.02 in1016.6 mb 0.21 in5.3 mm 0.00 in0.0 mm 0.65 in16.5 mm
03:50 AM 39.2°F4.0°C 38.2°F3.4°C 96% 6.8 mph ENE10.9 kmh ENE 22.0 mph35.4 kmh 30.03 in1016.9 mb 0.21 in5.3 mm 0.00 in0.0 mm 0.66 in16.8 mm
03:55 AM 39.3°F4.1°C 38.2°F3.4°C 96% 8.9 mph NE14.3 kmh NE 22.0 mph35.4 kmh 30.03 in1016.9 mb 0.21 in5.3 mm 0.00 in0.0 mm 0.68 in17.3 mm
04:00 AM 39.3°F4.1°C 38.2°F3.4°C 96% 9.5 mph NE15.3 kmh NE 22.0 mph35.4 kmh 30.02 in1016.6 mb 0.17 in4.3 mm 0.00 in0.0 mm 0.68 in17.3 mm
04:05 AM 39.3°F4.1°C 38.2°F3.4°C 96% 4.9 mph NE7.9 kmh NE 20.0 mph32.2 kmh 30.04 in1017.3 mb 0.14 in3.6 mm 0.00 in0.0 mm 0.70 in17.8 mm
04:10 AM 39.3°F4.1°C 38.3°F3.5°C 96% 5.7 mph NE9.2 kmh NE 20.0 mph32.2 kmh 30.02 in1016.6 mb 0.15 in3.8 mm 0.12 in3.0 mm 0.73 in18.5 mm
04:15 AM 39.2°F4.0°C 38.2°F3.4°C 96% 5.9 mph NE9.5 kmh NE 17.0 mph27.4 kmh 30.03 in1016.9 mb 0.17 in4.3 mm 0.24 in6.1 mm 0.75 in19.1 mm
04:20 AM 39.1°F3.9°C 38.0°F3.3°C 96% 10.1 mph NE16.3 kmh NE 17.0 mph27.4 kmh 30.01 in1016.3 mb 0.16 in4.1 mm 0.00 in0.0 mm 0.75 in19.1 mm
04:25 AM 39.2°F4.0°C 38.4°F3.6°C 97% 10.4 mph ENE16.7 kmh ENE 17.0 mph27.4 kmh 30.01 in1016.3 mb 0.15 in3.8 mm 0.00 in0.0 mm 0.75 in19.1 mm
04:30 AM 39.2°F4.0°C 38.4°F3.6°C 97% 4.4 mph NE7.1 kmh NE 17.0 mph27.4 kmh 30.01 in1016.3 mb 0.14 in3.6 mm 0.00 in0.0 mm 0.75 in19.1 mm
04:35 AM 39.2°F4.0°C 38.4°F3.6°C 97% 6.1 mph NE9.8 kmh NE 17.0 mph27.4 kmh 30.00 in1015.9 mb 0.12 in3.0 mm 0.00 in0.0 mm 0.75 in19.1 mm
04:40 AM 39.2°F4.0°C 38.4°F3.6°C 97% 7.2 mph ENE11.6 kmh ENE 19.0 mph30.6 kmh 30.00 in1015.9 mb 0.12 in3.0 mm 0.00 in0.0 mm 0.76 in19.3 mm
04:45 AM 39.2°F4.0°C 38.1°F3.4°C 96% 10.7 mph NE17.2 kmh NE 21.0 mph33.8 kmh 29.98 in1015.2 mb 0.10 in2.5 mm 0.00 in0.0 mm 0.76 in19.3 mm
04:50 AM 39.2°F4.0°C 38.1°F3.4°C 96% 6.3 mph NE10.1 kmh NE 21.0 mph33.8 kmh 29.98 in1015.2 mb 0.11 in2.8 mm 0.12 in3.0 mm 0.77 in19.6 mm
04:55 AM 39.1°F3.9°C 38.0°F3.3°C 96% 7.0 mph NE11.3 kmh NE 21.0 mph33.8 kmh 29.98 in1015.2 mb 0.09 in2.3 mm 0.00 in0.0 mm 0.77 in19.6 mm
05:00 AM 38.9°F3.8°C 37.8°F3.2°C 96% 9.3 mph NE15.0 kmh NE 20.0 mph32.2 kmh 29.98 in1015.2 mb 0.09 in2.3 mm 0.00 in0.0 mm 0.77 in19.6 mm
05:05 AM 38.9°F3.8°C 37.8°F3.2°C 96% 6.8 mph NE10.9 kmh NE 20.0 mph32.2 kmh 29.98 in1015.2 mb 0.07 in1.8 mm 0.00 in0.0 mm 0.77 in19.6 mm
05:10 AM 38.8°F3.8°C 37.8°F3.2°C 96% 10.2 mph NE16.4 kmh NE 15.0 mph24.1 kmh 29.98 in1015.2 mb 0.04 in1.0 mm 0.00 in0.0 mm 0.77 in19.6 mm
05:15 AM 38.7°F3.7°C 37.9°F3.3°C 97% 8.0 mph NE12.9 kmh NE 17.0 mph27.4 kmh 29.99 in1015.6 mb 0.05 in1.3 mm 0.12 in3.0 mm 0.80 in20.3 mm
05:20 AM 38.7°F3.7°C 37.9°F3.3°C 97% 9.9 mph NE15.9 kmh NE 17.0 mph27.4 kmh 29.98 in1015.2 mb 0.07 in1.8 mm 0.24 in6.1 mm 0.82 in20.8 mm
05:26 AM 38.6°F3.7°C 37.8°F3.2°C 97% 10.1 mph ENE16.3 kmh ENE 22.0 mph35.4 kmh 29.97 in1014.9 mb 0.10 in2.5 mm 0.30 in7.6 mm 0.85 in21.6 mm
05:31 AM 38.6°F3.7°C 37.8°F3.2°C 97% 5.4 mph NE8.7 kmh NE 22.0 mph35.4 kmh 29.98 in1015.2 mb 0.11 in2.8 mm 0.12 in3.0 mm 0.86 in21.8 mm
05:36 AM 38.6°F3.7°C 37.8°F3.2°C 97% 6.5 mph NE10.5 kmh NE 22.0 mph35.4 kmh 29.99 in1015.6 mb 0.12 in3.0 mm 0.12 in3.0 mm 0.87 in22.1 mm
05:41 AM 38.5°F3.6°C 37.7°F3.2°C 97% 6.0 mph NE9.7 kmh NE 22.0 mph35.4 kmh 29.99 in1015.6 mb 0.15 in3.8 mm 0.36 in9.1 mm 0.91 in23.1 mm
05:46 AM 38.5°F3.6°C 37.7°F3.2°C 97% 8.1 mph NE13.0 kmh NE 17.0 mph27.4 kmh 30.00 in1015.9 mb 0.15 in3.8 mm 0.00 in0.0 mm 0.91 in23.1 mm
05:51 AM 38.5°F3.6°C 37.7°F3.2°C 97% 1.0 mph NNE1.6 kmh NNE 14.0 mph22.5 kmh 30.01 in1016.3 mb 0.15 in3.8 mm 0.00 in0.0 mm 0.92 in23.4 mm
05:56 AM 38.5°F3.6°C 37.7°F3.2°C 97% 4.2 mph NE6.8 kmh NE 14.0 mph22.5 kmh 30.02 in1016.6 mb 0.16 in4.1 mm 0.12 in3.0 mm 0.93 in23.6 mm
06:01 AM 38.5°F3.6°C 37.7°F3.2°C 97% 2.4 mph NNE3.9 kmh NNE 14.0 mph22.5 kmh 30.02 in1016.6 mb 0.18 in4.6 mm 0.02 in0.5 mm 0.95 in24.1 mm
06:06 AM 38.5°F3.6°C 37.7°F3.2°C 97% 5.6 mph NE9.0 kmh NE 11.0 mph17.7 kmh 30.02 in1016.6 mb 0.19 in4.8 mm 0.12 in3.0 mm 0.96 in24.4 mm
06:11 AM 38.5°F3.6°C 37.7°F3.2°C 97% 2.1 mph NE3.4 kmh NE 11.0 mph17.7 kmh 30.02 in1016.6 mb 0.20 in5.1 mm 0.12 in3.0 mm 0.97 in24.6 mm
06:16 AM 38.4°F3.6°C 37.6°F3.1°C 97% 6.7 mph NE10.8 kmh NE 14.0 mph22.5 kmh 30.01 in1016.3 mb 0.18 in4.6 mm 0.00 in0.0 mm 0.98 in24.9 mm
06:21 AM 38.4°F3.6°C 37.6°F3.1°C 97% 5.2 mph NE8.4 kmh NE 14.0 mph22.5 kmh 30.01 in1016.3 mb 0.17 in4.3 mm 0.00 in0.0 mm 0.99 in25.1 mm
06:26 AM 38.3°F3.5°C 37.5°F3.1°C 97% 5.1 mph NE8.2 kmh NE 14.0 mph22.5 kmh 30.01 in1016.3 mb 0.15 in3.8 mm 0.00 in0.0 mm 1.00 in25.4 mm
06:31 AM 38.3°F3.5°C 37.5°F3.1°C 97% 6.8 mph NE10.9 kmh NE 14.0 mph22.5 kmh 30.01 in1016.3 mb 0.13 in3.3 mm 0.00 in0.0 mm 1.00 in25.4 mm
06:36 AM 38.2°F3.4°C 37.4°F3.0°C 97% 8.3 mph NE13.4 kmh NE 14.0 mph22.5 kmh 30.01 in1016.3 mb 0.13 in3.3 mm 0.00 in0.0 mm 1.00 in25.4 mm
06:41 AM 38.2°F3.4°C 37.4°F3.0°C 97% 6.8 mph NE10.9 kmh NE 14.0 mph22.5 kmh 30.01 in1016.3 mb 0.10 in2.5 mm 0.00 in0.0 mm 1.01 in25.7 mm
06:46 AM 38.2°F3.4°C 37.4°F3.0°C 97% 5.7 mph NE9.2 kmh NE 14.0 mph22.5 kmh 30.01 in1016.3 mb 0.10 in2.5 mm 0.00 in0.0 mm 1.01 in25.7 mm
06:51 AM 38.1°F3.4°C 37.3°F2.9°C 97% 7.2 mph NE11.6 kmh NE 14.0 mph22.5 kmh 30.01 in1016.3 mb 0.09 in2.3 mm 0.00 in0.0 mm 1.01 in25.7 mm
06:56 AM 38.1°F3.4°C 37.3°F2.9°C 97% 9.5 mph NE15.3 kmh NE 16.0 mph25.7 kmh 30.01 in1016.3 mb 0.08 in2.0 mm 0.00 in0.0 mm 1.01 in25.7 mm
07:01 AM 38.1°F3.4°C 37.3°F2.9°C 97% 1.8 mph NNW2.9 kmh NNW 16.0 mph25.7 kmh 30.03 in1016.9 mb 0.07 in1.8 mm 0.00 in0.0 mm 1.02 in25.9 mm
07:06 AM 38.1°F3.4°C 37.3°F2.9°C 97% 11.5 mph NE18.5 kmh NE 17.0 mph27.4 kmh 30.02 in1016.6 mb 0.07 in1.8 mm 0.00 in0.0 mm 1.03 in26.2 mm
07:11 AM 38.0°F3.3°C 37.2°F2.9°C 97% 4.8 mph NE7.7 kmh NE 17.0 mph27.4 kmh 30.02 in1016.6 mb 0.09 in2.3 mm 0.24 in6.1 mm 1.06 in26.9 mm
07:16 AM 38.0°F3.3°C 37.2°F2.9°C 97% 1.6 mph NNE2.6 kmh NNE 17.0 mph27.4 kmh 30.02 in1016.6 mb 0.08 in2.0 mm 0.00 in0.0 mm 1.06 in26.9 mm
07:21 AM 37.9°F3.3°C 37.1°F2.8°C 97% 13.3 mph NE21.4 kmh NE 18.0 mph29.0 kmh 30.01 in1016.3 mb 0.08 in2.0 mm 0.00 in0.0 mm 1.07 in27.2 mm
07:25 AM 37.9°F3.3°C 37.1°F2.8°C 97% 6.2 mph NE10.0 kmh NE 18.0 mph29.0 kmh 30.02 in1016.6 mb 0.07 in1.8 mm 0.00 in0.0 mm 1.07 in27.2 mm
07:30 AM 37.8°F3.2°C 37.0°F2.8°C 97% 2.3 mph NE3.7 kmh NE 18.0 mph29.0 kmh 30.02 in1016.6 mb 0.07 in1.8 mm 0.00 in0.0 mm 1.07 in27.2 mm
07:35 AM 37.8°F3.2°C 37.0°F2.8°C 97% 6.6 mph NE10.6 kmh NE 18.0 mph29.0 kmh 30.01 in1016.3 mb 0.07 in1.8 mm 0.00 in0.0 mm 1.07 in27.2 mm
07:40 AM 37.7°F3.2°C 36.9°F2.7°C 97% 6.8 mph NE10.9 kmh NE 16.0 mph25.7 kmh 30.01 in1016.3 mb 0.06 in1.5 mm 0.00 in0.0 mm 1.07 in27.2 mm
07:45 AM 37.6°F3.1°C 36.8°F2.7°C 97% 9.2 mph NE14.8 kmh NE 14.0 mph22.5 kmh 30.00 in1015.9 mb 0.06 in1.5 mm 0.00 in0.0 mm 1.07 in27.2 mm
07:50 AM 37.5°F3.1°C 36.7°F2.6°C 97% 7.9 mph NE12.7 kmh NE 18.0 mph29.0 kmh 30.00 in1015.9 mb 0.06 in1.5 mm 0.00 in0.0 mm 1.07 in27.2 mm
07:55 AM 37.5°F3.1°C 36.7°F2.6°C 97% 8.8 mph NE14.2 kmh NE 19.0 mph30.6 kmh 30.00 in1015.9 mb 0.06 in1.5 mm 0.00 in0.0 mm 1.07 in27.2 mm
08:00 AM 37.4°F3.0°C 36.6°F2.6°C 97% 11.8 mph NE19.0 kmh NE 20.0 mph32.2 kmh 29.99 in1015.6 mb 0.05 in1.3 mm 0.00 in0.0 mm 1.07 in27.2 mm
08:05 AM 37.3°F2.9°C 36.5°F2.5°C 97% 13.5 mph NE21.7 kmh NE 20.0 mph32.2 kmh 30.00 in1015.9 mb 0.04 in1.0 mm 0.00 in0.0 mm 1.07 in27.2 mm
08:10 AM 37.3°F2.9°C 36.5°F2.5°C 97% 9.3 mph NE15.0 kmh NE 20.0 mph32.2 kmh 30.00 in1015.9 mb 0.01 in0.3 mm 0.00 in0.0 mm 1.07 in27.2 mm
08:15 AM 37.3°F2.9°C 36.5°F2.5°C 97% 7.8 mph NE12.6 kmh NE 20.0 mph32.2 kmh 30.00 in1015.9 mb 0.01 in0.3 mm 0.00 in0.0 mm 1.07 in27.2 mm
08:20 AM 37.3°F2.9°C 36.5°F2.5°C 97% 8.4 mph NE13.5 kmh NE 20.0 mph32.2 kmh 30.00 in1015.9 mb 0.00 in0.0 mm 0.00 in0.0 mm 1.07 in27.2 mm
08:25 AM 37.2°F2.9°C 36.4°F2.4°C 97% 11.4 mph NE18.3 kmh NE 21.0 mph33.8 kmh 30.00 in1015.9 mb 0.00 in0.0 mm 0.00 in0.0 mm 1.07 in27.2 mm
08:30 AM 37.2°F2.9°C 36.4°F2.4°C 97% 11.6 mph NE18.7 kmh NE 21.0 mph33.8 kmh 30.00 in1015.9 mb 0.00 in0.0 mm 0.00 in0.0 mm 1.07 in27.2 mm
08:35 AM 37.2°F2.9°C 36.2°F2.3°C 96% 8.4 mph NE13.5 kmh NE 21.0 mph33.8 kmh 30.00 in1015.9 mb 0.00 in0.0 mm 0.00 in0.0 mm 1.07 in27.2 mm
08:40 AM 37.1°F2.8°C 36.1°F2.3°C 96% 11.5 mph NE18.5 kmh NE 21.0 mph33.8 kmh 29.99 in1015.6 mb 0.00 in0.0 mm 0.00 in0.0 mm 1.07 in27.2 mm
08:45 AM 37.1°F2.8°C 36.0°F2.2°C 96% 12.4 mph NE20.0 kmh NE 22.0 mph35.4 kmh 29.99 in1015.6 mb 0.00 in0.0 mm 0.00 in0.0 mm 1.07 in27.2 mm
08:50 AM 37.1°F2.8°C 36.0°F2.2°C 96% 8.4 mph NE13.5 kmh NE 22.0 mph35.4 kmh 29.99 in1015.6 mb 0.00 in0.0 mm 0.00 in0.0 mm 1.07 in27.2 mm
08:55 AM 37.1°F2.8°C 36.0°F2.2°C 96% 5.7 mph NE9.2 kmh NE 22.0 mph35.4 kmh 29.99 in1015.6 mb 0.00 in0.0 mm 0.00 in0.0 mm 1.07 in27.2 mm
09:00 AM 37.0°F2.8°C 35.9°F2.2°C 96% 6.9 mph NE11.1 kmh NE 22.0 mph35.4 kmh 29.99 in1015.6 mb 0.00 in0.0 mm 0.00 in0.0 mm 1.07 in27.2 mm
09:05 AM 36.9°F2.7°C 35.9°F2.2°C 96% 9.6 mph NE15.4 kmh NE 22.0 mph35.4 kmh 29.99 in1015.6 mb 0.00 in0.0 mm 0.00 in0.0 mm 1.07 in27.2 mm
09:10 AM 36.9°F2.7°C 35.8°F2.1°C 96% 9.8 mph NE15.8 kmh NE 17.0 mph27.4 kmh 29.99 in1015.6 mb 0.00 in0.0 mm 0.00 in0.0 mm 1.07 in27.2 mm
09:15 AM 36.8°F2.7°C 35.7°F2.1°C 96% 11.2 mph NE18.0 kmh NE 21.0 mph33.8 kmh 30.00 in1015.9 mb 0.00 in0.0 mm 0.00 in0.0 mm 1.07 in27.2 mm
09:20 AM 36.8°F2.7°C 35.7°F2.1°C 96% 7.1 mph NE11.4 kmh NE 21.0 mph33.8 kmh 30.00 in1015.9 mb 0.00 in0.0 mm 0.00 in0.0 mm 1.07 in27.2 mm
09:25 AM 36.7°F2.6°C 35.6°F2.0°C 96% 8.8 mph NE14.2 kmh NE 21.0 mph33.8 kmh 30.00 in1015.9 mb 0.00 in0.0 mm 0.00 in0.0 mm 1.07 in27.2 mm
09:31 AM 36.7°F2.6°C 35.6°F2.0°C 96% 7.8 mph NE12.6 kmh NE 21.0 mph33.8 kmh 30.00 in1015.9 mb 0.00 in0.0 mm 0.00 in0.0 mm 1.07 in27.2 mm
09:36 AM 36.6°F2.6°C 35.6°F2.0°C 96% 9.2 mph NE14.8 kmh NE 20.0 mph32.2 kmh 30.00 in1015.9 mb 0.00 in0.0 mm 0.00 in0.0 mm 1.07 in27.2 mm
09:41 AM 36.6°F2.6°C 35.5°F1.9°C 96% 7.9 mph NE12.7 kmh NE 20.0 mph32.2 kmh 30.00 in1015.9 mb 0.00 in0.0 mm 0.00 in0.0 mm 1.07 in27.2 mm
09:46 AM 36.6°F2.6°C 35.5°F1.9°C 96% 11.1 mph NE17.9 kmh NE 20.0 mph32.2 kmh 30.00 in1015.9 mb 0.00 in0.0 mm 0.00 in0.0 mm 1.07 in27.2 mm
09:51 AM 36.6°F2.6°C 35.5°F1.9°C 96% 8.0 mph NE12.9 kmh NE 20.0 mph32.2 kmh 30.01 in1016.3 mb 0.00 in0.0 mm 0.00 in0.0 mm 1.07 in27.2 mm
09:56 AM 36.6°F2.6°C 35.6°F2.0°C 96% 8.6 mph NE13.8 kmh NE 20.0 mph32.2 kmh 30.01 in1016.3 mb 0.00 in0.0 mm 0.00 in0.0 mm 1.07 in27.2 mm
10:01 AM 36.6°F2.6°C 35.6°F2.0°C 96% 10.1 mph NE16.3 kmh NE 18.0 mph29.0 kmh 30.01 in1016.3 mb 0.00 in0.0 mm 0.00 in0.0 mm 1.07 in27.2 mm
10:06 AM 36.6°F2.6°C 35.5°F1.9°C 96% 5.6 mph NE9.0 kmh NE 18.0 mph29.0 kmh 30.01 in1016.3 mb 0.00 in0.0 mm 0.00 in0.0 mm 1.07 in27.2 mm
10:11 AM 36.6°F2.6°C 35.5°F1.9°C 96% 6.8 mph NE10.9 kmh NE 18.0 mph29.0 kmh 30.02 in1016.6 mb 0.00 in0.0 mm 0.00 in0.0 mm 1.07 in27.2 mm
10:16 AM 36.5°F2.5°C 35.5°F1.9°C 96% 9.7 mph NE15.6 kmh NE 18.0 mph29.0 kmh 30.01 in1016.3 mb 0.00 in0.0 mm 0.00 in0.0 mm 1.07 in27.2 mm
10:21 AM 36.6°F2.6°C 35.5°F1.9°C 96% 6.1 mph NE9.8 kmh NE 20.0 mph32.2 kmh 30.01 in1016.3 mb 0.00 in0.0 mm 0.00 in0.0 mm 1.07 in27.2 mm
10:26 AM 36.6°F2.6°C 35.5°F1.9°C 96% 8.8 mph NE14.2 kmh NE 20.0 mph32.2 kmh 30.01 in1016.3 mb 0.00 in0.0 mm 0.00 in0.0 mm 1.07 in27.2 mm
10:31 AM 36.5°F2.5°C 35.4°F1.9°C 96% 9.3 mph NE15.0 kmh NE 20.0 mph32.2 kmh 30.00 in1015.9 mb 0.00 in0.0 mm 0.00 in0.0 mm 1.07 in27.2 mm
10:36 AM 36.6°F2.6°C 35.5°F1.9°C 96% 8.2 mph NE13.2 kmh NE 20.0 mph32.2 kmh 30.01 in1016.3 mb 0.00 in0.0 mm 0.00 in0.0 mm 1.07 in27.2 mm
10:41 AM 36.5°F2.5°C 35.4°F1.9°C 96% 10.0 mph NE16.1 kmh NE 19.0 mph30.6 kmh 30.01 in1016.3 mb 0.00 in0.0 mm 0.00 in0.0 mm 1.07 in27.2 mm
10:46 AM 36.5°F2.5°C 35.5°F1.9°C 96% 7.4 mph NE11.9 kmh NE 19.0 mph30.6 kmh 30.01 in1016.3 mb 0.00 in0.0 mm 0.00 in0.0 mm 1.07 in27.2 mm
10:51 AM 36.6°F2.6°C 35.5°F1.9°C 96% 5.6 mph NE9.0 kmh NE 19.0 mph30.6 kmh 30.01 in1016.3 mb 0.00 in0.0 mm 0.00 in0.0 mm 1.07 in27.2 mm
10:56 AM 36.5°F2.5°C 35.4°F1.9°C 96% 7.4 mph NE11.9 kmh NE 19.0 mph30.6 kmh 30.00 in1015.9 mb 0.00 in0.0 mm 0.00 in0.0 mm 1.07 in27.2 mm
11:01 AM 36.6°F2.6°C 35.8°F2.1°C 97% 7.1 mph ENE11.4 kmh ENE 16.0 mph25.7 kmh 30.00 in1015.9 mb 0.00 in0.0 mm 0.00 in0.0 mm 1.07 in27.2 mm
11:06 AM 36.6°F2.6°C 35.8°F2.1°C 97% 7.6 mph NE12.2 kmh NE 16.0 mph25.7 kmh 30.00 in1015.9 mb 0.00 in0.0 mm 0.00 in0.0 mm 1.07 in27.2 mm
11:11 AM 36.7°F2.6°C 35.9°F2.2°C 97% 8.0 mph NE12.9 kmh NE 17.0 mph27.4 kmh 29.99 in1015.6 mb 0.00 in0.0 mm 0.00 in0.0 mm 1.07 in27.2 mm
11:16 AM 36.8°F2.7°C 36.0°F2.2°C 97% 7.4 mph NE11.9 kmh NE 17.0 mph27.4 kmh 30.00 in1015.9 mb 0.00 in0.0 mm 0.00 in0.0 mm 1.07 in27.2 mm
11:21 AM 36.8°F2.7°C 36.0°F2.2°C 97% 7.1 mph NE11.4 kmh NE 17.0 mph27.4 kmh 30.00 in1015.9 mb 0.00 in0.0 mm 0.00 in0.0 mm 1.07 in27.2 mm
11:26 AM 36.8°F2.7°C 36.0°F2.2°C 97% 8.8 mph NE14.2 kmh NE 16.0 mph25.7 kmh 29.99 in1015.6 mb 0.00 in0.0 mm 0.00 in0.0 mm 1.07 in27.2 mm
11:31 AM 36.8°F2.7°C 36.0°F2.2°C 97% 9.5 mph NE15.3 kmh NE 20.0 mph32.2 kmh 29.99 in1015.6 mb 0.00 in0.0 mm 0.00 in0.0 mm 1.07 in27.2 mm
11:36 AM 36.7°F2.6°C 35.6°F2.0°C 96% 10.7 mph NE17.2 kmh NE 20.0 mph32.2 kmh 29.99 in1015.6 mb 0.00 in0.0 mm 0.00 in0.0 mm 1.07 in27.2 mm
11:41 AM 36.7°F2.6°C 35.6°F2.0°C 96% 9.9 mph NE15.9 kmh NE 20.0 mph32.2 kmh 29.99 in1015.6 mb 0.00 in0.0 mm 0.00 in0.0 mm 1.07 in27.2 mm
11:46 AM 36.8°F2.7°C 35.7°F2.1°C 96% 6.4 mph NE10.3 kmh NE 20.0 mph32.2 kmh 29.99 in1015.6 mb 0.00 in0.0 mm 0.00 in0.0 mm 1.07 in27.2 mm
11:51 AM 36.9°F2.7°C 35.8°F2.1°C 96% 2.9 mph NE4.7 kmh NE 20.0 mph32.2 kmh 29.99 in1015.6 mb 0.00 in0.0 mm 0.00 in0.0 mm 1.07 in27.2 mm
11:56 AM 36.8°F2.7°C 35.7°F2.1°C 96% 8.3 mph NE13.4 kmh NE 18.0 mph29.0 kmh 29.99 in1015.6 mb 0.00 in0.0 mm 0.00 in0.0 mm 1.07 in27.2 mm
12:01 PM 36.7°F2.6°C 35.6°F2.0°C 96% 9.3 mph NE15.0 kmh NE 16.0 mph25.7 kmh 29.99 in1015.6 mb 0.00 in0.0 mm 0.00 in0.0 mm 1.07 in27.2 mm
12:06 PM 36.7°F2.6°C 35.7°F2.1°C 96% 10.1 mph NE16.3 kmh NE 19.0 mph30.6 kmh 29.98 in1015.2 mb 0.00 in0.0 mm 0.00 in0.0 mm 1.07 in27.2 mm
12:11 PM 36.8°F2.7°C 35.7°F2.1°C 96% 6.5 mph NE10.5 kmh NE 19.0 mph30.6 kmh 29.98 in1015.2 mb 0.00 in0.0 mm 0.00 in0.0 mm 1.07 in27.2 mm
12:16 PM 36.9°F2.7°C 35.8°F2.1°C 96% 6.5 mph NE10.5 kmh NE 19.0 mph30.6 kmh 29.98 in1015.2 mb 0.00 in0.0 mm 0.00 in0.0 mm 1.07 in27.2 mm
12:21 PM 36.9°F2.7°C 35.8°F2.1°C 96% 5.5 mph NE8.9 kmh NE 19.0 mph30.6 kmh 29.98 in1015.2 mb 0.00 in0.0 mm 0.00 in0.0 mm 1.07 in27.2 mm
12:25 PM 36.9°F2.7°C 35.8°F2.1°C 96% 8.2 mph NE13.2 kmh NE 17.0 mph27.4 kmh 29.97 in1014.9 mb 0.00 in0.0 mm 0.00 in0.0 mm 1.07 in27.2 mm
12:30 PM 36.9°F2.7°C 35.8°F2.1°C 96% 6.5 mph NE10.5 kmh NE 14.0 mph22.5 kmh 29.98 in1015.2 mb 0.00 in0.0 mm 0.00 in0.0 mm 1.07 in27.2 mm
12:35 PM 36.9°F2.7°C 35.8°F2.1°C 96% 7.9 mph NE12.7 kmh NE 15.0 mph24.1 kmh 29.98 in1015.2 mb 0.00 in0.0 mm 0.00 in0.0 mm 1.07 in27.2 mm
12:40 PM 36.8°F2.7°C 35.5°F1.9°C 95% 8.3 mph NE13.4 kmh NE 19.0 mph30.6 kmh 29.98 in1015.2 mb 0.00 in0.0 mm 0.00 in0.0 mm 1.07 in27.2 mm
12:45 PM 36.8°F2.7°C 35.5°F1.9°C 95% 7.6 mph NE12.2 kmh NE 19.0 mph30.6 kmh 29.98 in1015.2 mb 0.00 in0.0 mm 0.00 in0.0 mm 1.07 in27.2 mm
12:50 PM 36.8°F2.7°C 35.5°F1.9°C 95% 6.9 mph NE11.1 kmh NE 19.0 mph30.6 kmh 29.98 in1015.2 mb 0.00 in0.0 mm 0.00 in0.0 mm 1.07 in27.2 mm
12:55 PM 36.9°F2.7°C 35.6°F2.0°C 95% 6.8 mph NE10.9 kmh NE 19.0 mph30.6 kmh 29.99 in1015.6 mb 0.00 in0.0 mm 0.00 in0.0 mm 1.07 in27.2 mm
01:00 PM 36.9°F2.7°C 35.6°F2.0°C 95% 7.7 mph NE12.4 kmh NE 15.0 mph24.1 kmh 29.99 in1015.6 mb 0.00 in0.0 mm 0.00 in0.0 mm 1.07 in27.2 mm
01:05 PM 36.9°F2.7°C 35.6°F2.0°C 95% 9.0 mph NE14.5 kmh NE 15.0 mph24.1 kmh 29.98 in1015.2 mb 0.00 in0.0 mm 0.00 in0.0 mm 1.07 in27.2 mm
01:10 PM 36.9°F2.7°C 35.6°F2.0°C 95% 10.2 mph NE16.4 kmh NE 20.0 mph32.2 kmh 29.96 in1014.6 mb 0.00 in0.0 mm 0.00 in0.0 mm 1.07 in27.2 mm
01:15 PM 37.0°F2.8°C 35.7°F2.1°C 95% 7.3 mph NNE11.7 kmh NNE 20.0 mph32.2 kmh 29.97 in1014.9 mb 0.00 in0.0 mm 0.00 in0.0 mm 1.07 in27.2 mm
01:20 PM 37.1°F2.8°C 35.8°F2.1°C 95% 4.5 mph NE7.2 kmh NE 20.0 mph32.2 kmh 29.97 in1014.9 mb 0.00 in0.0 mm 0.00 in0.0 mm 1.07 in27.2 mm
01:25 PM 37.1°F2.8°C 35.8°F2.1°C 95% 5.2 mph NE8.4 kmh NE 20.0 mph32.2 kmh 29.97 in1014.9 mb 0.00 in0.0 mm 0.00 in0.0 mm 1.07 in27.2 mm
01:30 PM 37.2°F2.9°C 35.9°F2.2°C 95% 5.6 mph NE9.0 kmh NE 17.0 mph27.4 kmh 29.96 in1014.6 mb 0.00 in0.0 mm 0.00 in0.0 mm 1.07 in27.2 mm
01:35 PM 37.2°F2.9°C 36.1°F2.3°C 96% 3.8 mph NE6.1 kmh NE 13.0 mph20.9 kmh 29.97 in1014.9 mb 0.00 in0.0 mm 0.00 in0.0 mm 1.07 in27.2 mm
01:40 PM 37.1°F2.8°C 36.0°F2.2°C 96% 7.2 mph NE11.6 kmh NE 13.0 mph20.9 kmh 29.97 in1014.9 mb 0.00 in0.0 mm 0.00 in0.0 mm 1.07 in27.2 mm
01:45 PM 37.0°F2.8°C 35.7°F2.1°C 95% 6.6 mph NE10.6 kmh NE 13.0 mph20.9 kmh 29.97 in1014.9 mb 0.00 in0.0 mm 0.00 in0.0 mm 1.07 in27.2 mm
01:50 PM 37.1°F2.8°C 35.8°F2.1°C 95% 6.0 mph NE9.7 kmh NE 13.0 mph20.9 kmh 29.96 in1014.6 mb 0.00 in0.0 mm 0.00 in0.0 mm 1.07 in27.2 mm
01:55 PM 36.9°F2.7°C 35.6°F2.0°C 95% 8.6 mph NE13.8 kmh NE 15.0 mph24.1 kmh 29.97 in1014.9 mb 0.00 in0.0 mm 0.00 in0.0 mm 1.07 in27.2 mm
02:00 PM 36.8°F2.7°C 35.5°F1.9°C 95% 6.0 mph NE9.7 kmh NE 15.0 mph24.1 kmh 29.97 in1014.9 mb 0.00 in0.0 mm 0.00 in0.0 mm 1.07 in27.2 mm
02:05 PM 36.9°F2.7°C 35.6°F2.0°C 95% 7.1 mph NE11.4 kmh NE 15.0 mph24.1 kmh 29.97 in1014.9 mb 0.00 in0.0 mm 0.00 in0.0 mm 1.07 in27.2 mm
02:10 PM 36.9°F2.7°C 35.6°F2.0°C 95% 7.1 mph NE11.4 kmh NE 16.0 mph25.7 kmh 29.96 in1014.6 mb 0.00 in0.0 mm 0.00 in0.0 mm 1.07 in27.2 mm
02:15 PM 36.9°F2.7°C 35.6°F2.0°C 95% 8.3 mph NE13.4 kmh NE 16.0 mph25.7 kmh 29.96 in1014.6 mb 0.00 in0.0 mm 0.00 in0.0 mm 1.07 in27.2 mm
02:20 PM 37.0°F2.8°C 35.7°F2.1°C 95% 6.5 mph NE10.5 kmh NE 16.0 mph25.7 kmh 29.96 in1014.6 mb 0.00 in0.0 mm 0.00 in0.0 mm 1.07 in27.2 mm
02:25 PM 37.1°F2.8°C 35.8°F2.1°C 95% 4.1 mph NE6.6 kmh NE 16.0 mph25.7 kmh 29.96 in1014.6 mb 0.00 in0.0 mm 0.00 in0.0 mm 1.07 in27.2 mm
02:30 PM 37.1°F2.8°C 35.8°F2.1°C 95% 7.8 mph NE12.6 kmh NE 16.0 mph25.7 kmh 29.96 in1014.6 mb 0.00 in0.0 mm 0.00 in0.0 mm 1.07 in27.2 mm
02:35 PM 37.2°F2.9°C 35.9°F2.2°C 95% 5.0 mph NE8.0 kmh NE 16.0 mph25.7 kmh 29.96 in1014.6 mb 0.00 in0.0 mm 0.00 in0.0 mm 1.07 in27.2 mm
02:40 PM 37.3°F2.9°C 36.0°F2.2°C 95% 4.8 mph NE7.7 kmh NE 14.0 mph22.5 kmh 29.97 in1014.9 mb 0.00 in0.0 mm 0.00 in0.0 mm 1.07 in27.2 mm
02:45 PM 37.2°F2.9°C 35.6°F2.0°C 94% 9.6 mph NE15.4 kmh NE 16.0 mph25.7 kmh 29.97 in1014.9 mb 0.00 in0.0 mm 0.00 in0.0 mm 1.07 in27.2 mm
02:50 PM 37.3°F2.9°C 35.7°F2.1°C 94% 6.0 mph NE9.7 kmh NE 16.0 mph25.7 kmh 29.96 in1014.6 mb 0.00 in0.0 mm 0.00 in0.0 mm 1.07 in27.2 mm
02:55 PM 37.4°F3.0°C 35.8°F2.1°C 94% 6.0 mph NE9.7 kmh NE 16.0 mph25.7 kmh 29.96 in1014.6 mb 0.00 in0.0 mm 0.00 in0.0 mm 1.07 in27.2 mm
03:00 PM 37.5°F3.1°C 35.9°F2.2°C 94% 6.1 mph NE9.8 kmh NE 16.0 mph25.7 kmh 29.96 in1014.6 mb 0.00 in0.0 mm 0.00 in0.0 mm 1.07 in27.2 mm
03:05 PM 37.5°F3.1°C 35.9°F2.2°C 94% 3.3 mph NE5.3 kmh NE 13.0 mph20.9 kmh 29.97 in1014.9 mb 0.00 in0.0 mm 0.00 in0.0 mm 1.07 in27.2 mm
03:10 PM 37.5°F3.1°C 35.9°F2.2°C 94% 3.9 mph NE6.3 kmh NE 13.0 mph20.9 kmh 29.97 in1014.9 mb 0.00 in0.0 mm 0.00 in0.0 mm 1.07 in27.2 mm
03:15 PM 37.4°F3.0°C 35.8°F2.1°C 94% 4.5 mph NE7.2 kmh NE 12.0 mph19.3 kmh 29.97 in1014.9 mb 0.00 in0.0 mm 0.00 in0.0 mm 1.07 in27.2 mm
03:20 PM 37.3°F2.9°C 35.7°F2.1°C 94% 3.0 mph NE4.8 kmh NE 12.0 mph19.3 kmh 29.97 in1014.9 mb 0.00 in0.0 mm 0.00 in0.0 mm 1.07 in27.2 mm
03:25 PM 37.3°F2.9°C 36.0°F2.2°C 95% 4.5 mph NE7.2 kmh NE 10.0 mph16.1 kmh 29.97 in1014.9 mb 0.00 in0.0 mm 0.00 in0.0 mm 1.07 in27.2 mm
03:30 PM 37.1°F2.8°C 35.8°F2.1°C 95% 7.9 mph NE12.7 kmh NE 13.0 mph20.9 kmh 29.97 in1014.9 mb 0.00 in0.0 mm 0.00 in0.0 mm 1.07 in27.2 mm
03:35 PM 37.0°F2.8°C 35.7°F2.1°C 95% 6.2 mph NE10.0 kmh NE 13.0 mph20.9 kmh 29.97 in1014.9 mb 0.00 in0.0 mm 0.00 in0.0 mm 1.07 in27.2 mm
03:40 PM 37.0°F2.8°C 35.7°F2.1°C 95% 5.9 mph NE9.5 kmh NE 13.0 mph20.9 kmh 29.97 in1014.9 mb 0.00 in0.0 mm 0.00 in0.0 mm 1.07 in27.2 mm
03:46 PM 36.9°F2.7°C 35.6°F2.0°C 95% 5.6 mph NE9.0 kmh NE 13.0 mph20.9 kmh 29.98 in1015.2 mb 0.00 in0.0 mm 0.00 in0.0 mm 1.07 in27.2 mm
03:51 PM 36.9°F2.7°C 35.8°F2.1°C 96% 4.5 mph NE7.2 kmh NE 12.0 mph19.3 kmh 29.98 in1015.2 mb 0.00 in0.0 mm 0.00 in0.0 mm 1.07 in27.2 mm
03:56 PM 36.9°F2.7°C 35.9°F2.2°C 96% 3.2 mph NE5.1 kmh NE 12.0 mph19.3 kmh 29.98 in1015.2 mb 0.00 in0.0 mm 0.00 in0.0 mm 1.07 in27.2 mm
04:01 PM 36.9°F2.7°C 35.8°F2.1°C 96% 3.4 mph NE5.5 kmh NE 11.0 mph17.7 kmh 29.98 in1015.2 mb 0.00 in0.0 mm 0.00 in0.0 mm 1.07 in27.2 mm
04:06 PM 36.8°F2.7°C 35.8°F2.1°C 96% 5.3 mph NE8.5 kmh NE 12.0 mph19.3 kmh 29.98 in1015.2 mb 0.00 in0.0 mm 0.00 in0.0 mm 1.07 in27.2 mm
04:11 PM 36.8°F2.7°C 35.7°F2.1°C 96% 7.0 mph NE11.3 kmh NE 12.0 mph19.3 kmh 29.98 in1015.2 mb 0.00 in0.0 mm 0.00 in0.0 mm 1.07 in27.2 mm
04:16 PM 36.8°F2.7°C 35.8°F2.1°C 96% 4.1 mph NE6.6 kmh NE 12.0 mph19.3 kmh 29.98 in1015.2 mb 0.00 in0.0 mm 0.00 in0.0 mm 1.07 in27.2 mm
04:21 PM 36.8°F2.7°C 35.7°F2.1°C 96% 3.0 mph NE4.8 kmh NE 10.0 mph16.1 kmh 29.98 in1015.2 mb 0.00 in0.0 mm 0.00 in0.0 mm 1.07 in27.2 mm
04:26 PM 36.9°F2.7°C 35.8°F2.1°C 96% 2.0 mph NE3.2 kmh NE 10.0 mph16.1 kmh 29.98 in1015.2 mb 0.00 in0.0 mm 0.00 in0.0 mm 1.07 in27.2 mm
04:31 PM 36.8°F2.7°C 35.7°F2.1°C 96% 4.5 mph NE7.2 kmh NE 9.0 mph14.5 kmh 29.98 in1015.2 mb 0.01 in0.3 mm 0.12 in3.0 mm 1.08 in27.4 mm
04:36 PM 36.8°F2.7°C 35.7°F2.1°C 96% 4.4 mph NNE7.1 kmh NNE 8.0 mph12.9 kmh 29.99 in1015.6 mb 0.01 in0.3 mm 0.00 in0.0 mm 1.08 in27.4 mm
04:41 PM 36.8°F2.7°C 35.7°F2.1°C 96% 1.3 mph NNE2.1 kmh NNE 8.0 mph12.9 kmh 29.99 in1015.6 mb 0.01 in0.3 mm 0.00 in0.0 mm 1.08 in27.4 mm
04:46 PM 36.6°F2.6°C 35.5°F1.9°C 96% 4.0 mph NNE6.4 kmh NNE 9.0 mph14.5 kmh 29.99 in1015.6 mb 0.01 in0.3 mm 0.00 in0.0 mm 1.08 in27.4 mm
04:51 PM 36.5°F2.5°C 35.4°F1.9°C 96% 3.0 mph NE4.8 kmh NE 9.0 mph14.5 kmh 29.99 in1015.6 mb 0.01 in0.3 mm 0.00 in0.0 mm 1.08 in27.4 mm
04:56 PM 36.4°F2.4°C 35.3°F1.8°C 96% 1.5 mph NNE2.4 kmh NNE 9.0 mph14.5 kmh 29.99 in1015.6 mb 0.01 in0.3 mm 0.00 in0.0 mm 1.08 in27.4 mm
05:01 PM 36.3°F2.4°C 35.3°F1.8°C 96% 4.1 mph NE6.6 kmh NE 9.0 mph14.5 kmh 29.99 in1015.6 mb 0.01 in0.3 mm 0.00 in0.0 mm 1.08 in27.4 mm
05:06 PM 36.3°F2.4°C 35.5°F1.9°C 97% 3.1 mph NE5.0 kmh NE 9.0 mph14.5 kmh 29.99 in1015.6 mb 0.01 in0.3 mm 0.00 in0.0 mm 1.08 in27.4 mm
05:11 PM 36.3°F2.4°C 35.5°F1.9°C 97% 3.0 mph NE4.8 kmh NE 9.0 mph14.5 kmh 29.99 in1015.6 mb 0.01 in0.3 mm 0.00 in0.0 mm 1.08 in27.4 mm
05:16 PM 36.3°F2.4°C 35.5°F1.9°C 97% 3.2 mph N5.1 kmh N 8.0 mph12.9 kmh 30.00 in1015.9 mb 0.01 in0.3 mm 0.00 in0.0 mm 1.08 in27.4 mm
05:21 PM 36.2°F2.3°C 35.4°F1.9°C 97% 2.2 mph NNE3.5 kmh NNE 8.0 mph12.9 kmh 30.00 in1015.9 mb 0.01 in0.3 mm 0.00 in0.0 mm 1.08 in27.4 mm
05:25 PM 36.2°F2.3°C 35.4°F1.9°C 97% 1.0 mph NE1.6 kmh NE 8.0 mph12.9 kmh 30.00 in1015.9 mb 0.01 in0.3 mm 0.00 in0.0 mm 1.08 in27.4 mm
05:30 PM 36.2°F2.3°C 35.4°F1.9°C 97% 3.3 mph NE5.3 kmh NE 8.0 mph12.9 kmh 30.00 in1015.9 mb 0.00 in0.0 mm 0.00 in0.0 mm 1.08 in27.4 mm
05:35 PM 36.1°F2.3°C 35.3°F1.8°C 97% 4.5 mph NE7.2 kmh NE 9.0 mph14.5 kmh 30.00 in1015.9 mb 0.00 in0.0 mm 0.00 in0.0 mm 1.08 in27.4 mm
05:40 PM 36.1°F2.3°C 35.3°F1.8°C 97% 3.6 mph NE5.8 kmh NE 9.0 mph14.5 kmh 30.00 in1015.9 mb 0.00 in0.0 mm 0.00 in0.0 mm 1.08 in27.4 mm
05:45 PM 36.1°F2.3°C 35.3°F1.8°C 97% 5.5 mph NE8.9 kmh NE 9.0 mph14.5 kmh 30.00 in1015.9 mb 0.01 in0.3 mm 0.12 in3.0 mm 1.09 in27.7 mm
05:50 PM 36.1°F2.3°C 35.3°F1.8°C 97% 1.8 mph N2.9 kmh N 9.0 mph14.5 kmh 30.01 in1016.3 mb 0.01 in0.3 mm 0.00 in0.0 mm 1.09 in27.7 mm
05:55 PM 36.1°F2.3°C 35.3°F1.8°C 97% 2.8 mph NNE4.5 kmh NNE 9.0 mph14.5 kmh 30.01 in1016.3 mb 0.01 in0.3 mm 0.00 in0.0 mm 1.09 in27.7 mm
06:00 PM 36.1°F2.3°C 35.3°F1.8°C 97% 3.6 mph NE5.8 kmh NE 9.0 mph14.5 kmh 30.01 in1016.3 mb 0.01 in0.3 mm 0.00 in0.0 mm 1.09 in27.7 mm
06:05 PM 36.1°F2.3°C 35.3°F1.8°C 97% 3.1 mph NE5.0 kmh NE 8.0 mph12.9 kmh 30.01 in1016.3 mb 0.01 in0.3 mm 0.00 in0.0 mm 1.09 in27.7 mm
06:10 PM 36.0°F2.2°C 35.2°F1.8°C 97% 3.0 mph NE4.8 kmh NE 9.0 mph14.5 kmh 30.01 in1016.3 mb 0.01 in0.3 mm 0.00 in0.0 mm 1.09 in27.7 mm
06:15 PM 36.0°F2.2°C 35.2°F1.8°C 97% 4.6 mph NE7.4 kmh NE 9.0 mph14.5 kmh 30.02 in1016.6 mb 0.02 in0.5 mm 0.12 in3.0 mm 1.10 in27.9 mm
06:20 PM 36.0°F2.2°C 35.2°F1.8°C 97% 3.9 mph NE6.3 kmh NE 9.0 mph14.5 kmh 30.02 in1016.6 mb 0.02 in0.5 mm 0.00 in0.0 mm 1.10 in27.9 mm
06:25 PM 36.0°F2.2°C 35.2°F1.8°C 97% 1.3 mph NE2.1 kmh NE 9.0 mph14.5 kmh 30.02 in1016.6 mb 0.02 in0.5 mm 0.00 in0.0 mm 1.10 in27.9 mm
06:30 PM 36.1°F2.3°C 35.3°F1.8°C 97% 1.0 mph NE1.6 kmh NE 7.0 mph11.3 kmh 30.02 in1016.6 mb 0.02 in0.5 mm 0.00 in0.0 mm 1.10 in27.9 mm
06:35 PM 36.1°F2.3°C 35.3°F1.8°C 97% 3.0 mph NE4.8 kmh NE 7.0 mph11.3 kmh 30.02 in1016.6 mb 0.02 in0.5 mm 0.00 in0.0 mm 1.10 in27.9 mm
06:40 PM 36.1°F2.3°C 35.3°F1.8°C 97% 1.8 mph ENE2.9 kmh ENE 5.0 mph8.0 kmh 30.02 in1016.6 mb 0.02 in0.5 mm 0.00 in0.0 mm 1.10 in27.9 mm
06:45 PM 36.1°F2.3°C 35.3°F1.8°C 97% Calm Calm 5.0 mph8.0 kmh 30.02 in1016.6 mb 0.01 in0.3 mm 0.00 in0.0 mm 1.10 in27.9 mm
06:50 PM 36.1°F2.3°C 35.3°F1.8°C 97% 1.8 mph N2.9 kmh N 7.0 mph11.3 kmh 30.02 in1016.6 mb 0.01 in0.3 mm 0.00 in0.0 mm 1.10 in27.9 mm
06:55 PM 36.0°F2.2°C 35.2°F1.8°C 97% 2.6 mph NNE4.2 kmh NNE 7.0 mph11.3 kmh 30.02 in1016.6 mb 0.01 in0.3 mm 0.00 in0.0 mm 1.10 in27.9 mm
07:00 PM 35.9°F2.2°C 35.1°F1.7°C 97% 3.1 mph NE5.0 kmh NE 8.0 mph12.9 kmh 30.02 in1016.6 mb 0.01 in0.3 mm 0.00 in0.0 mm 1.10 in27.9 mm
07:05 PM 35.8°F2.1°C 35.0°F1.7°C 97% 1.5 mph NE2.4 kmh NE 8.0 mph12.9 kmh 30.02 in1016.6 mb 0.01 in0.3 mm 0.00 in0.0 mm 1.10 in27.9 mm
07:10 PM 35.9°F2.2°C 35.1°F1.7°C 97% 1.0 mph ENE1.6 kmh ENE 8.0 mph12.9 kmh 30.02 in1016.6 mb 0.02 in0.5 mm 0.12 in3.0 mm 1.11 in28.2 mm
07:15 PM 35.8°F2.1°C 35.0°F1.7°C 97% 3.2 mph NE5.1 kmh NE 7.0 mph11.3 kmh 30.02 in1016.6 mb 0.01 in0.3 mm 0.00 in0.0 mm 1.11 in28.2 mm
07:20 PM 35.7°F2.1°C 34.9°F1.6°C 97% 2.2 mph NNE3.5 kmh NNE 11.0 mph17.7 kmh 30.02 in1016.6 mb 0.01 in0.3 mm 0.00 in0.0 mm 1.11 in28.2 mm
07:25 PM 35.7°F2.1°C 34.9°F1.6°C 97% 1.4 mph N2.3 kmh N 11.0 mph17.7 kmh 30.02 in1016.6 mb 0.01 in0.3 mm 0.00 in0.0 mm 1.11 in28.2 mm
07:30 PM 35.7°F2.1°C 34.9°F1.6°C 97% 2.1 mph NE3.4 kmh NE 11.0 mph17.7 kmh 30.02 in1016.6 mb 0.01 in0.3 mm 0.00 in0.0 mm 1.11 in28.2 mm
07:35 PM 35.7°F2.1°C 34.9°F1.6°C 97% 1.9 mph NE3.1 kmh NE 5.0 mph8.0 kmh 30.03 in1016.9 mb 0.01 in0.3 mm 0.00 in0.0 mm 1.11 in28.2 mm
07:40 PM 35.7°F2.1°C 34.9°F1.6°C 97% 1.5 mph N2.4 kmh N 6.0 mph9.7 kmh 30.03 in1016.9 mb 0.01 in0.3 mm 0.00 in0.0 mm 1.11 in28.2 mm
07:45 PM 35.6°F2.0°C 34.8°F1.6°C 97% 2.5 mph NNE4.0 kmh NNE 8.0 mph12.9 kmh 30.03 in1016.9 mb 0.01 in0.3 mm 0.00 in0.0 mm 1.11 in28.2 mm
07:50 PM 35.5°F1.9°C 34.7°F1.5°C 97% 2.3 mph N3.7 kmh N 8.0 mph12.9 kmh 30.03 in1016.9 mb 0.01 in0.3 mm 0.00 in0.0 mm 1.11 in28.2 mm
07:55 PM 35.4°F1.9°C 34.6°F1.4°C 97% 2.8 mph NNE4.5 kmh NNE 8.0 mph12.9 kmh 30.03 in1016.9 mb 0.01 in0.3 mm 0.00 in0.0 mm 1.11 in28.2 mm
08:00 PM 35.4°F1.9°C 34.6°F1.4°C 97% 1.0 mph NW1.6 kmh NW 8.0 mph12.9 kmh 30.03 in1016.9 mb 0.01 in0.3 mm 0.00 in0.0 mm 1.11 in28.2 mm
08:05 PM 35.4°F1.9°C 34.6°F1.4°C 97% 1.4 mph N2.3 kmh N 7.0 mph11.3 kmh 30.03 in1016.9 mb 0.01 in0.3 mm 0.00 in0.0 mm 1.11 in28.2 mm
08:10 PM 35.3°F1.8°C 34.5°F1.4°C 97% 2.6 mph NE4.2 kmh NE 8.0 mph12.9 kmh 30.03 in1016.9 mb 0.00 in0.0 mm 0.00 in0.0 mm 1.11 in28.2 mm
08:15 PM 35.3°F1.8°C 34.5°F1.4°C 97% 2.6 mph NNE4.2 kmh NNE 8.0 mph12.9 kmh 30.03 in1016.9 mb 0.00 in0.0 mm 0.00 in0.0 mm 1.11 in28.2 mm
08:20 PM 35.2°F1.8°C 34.4°F1.3°C 97% 2.4 mph N3.9 kmh N 8.0 mph12.9 kmh 30.03 in1016.9 mb 0.00 in0.0 mm 0.00 in0.0 mm 1.11 in28.2 mm
08:25 PM 35.2°F1.8°C 34.4°F1.3°C 97% 2.8 mph NE4.5 kmh NE 8.0 mph12.9 kmh 30.03 in1016.9 mb 0.00 in0.0 mm 0.00 in0.0 mm 1.11 in28.2 mm
08:30 PM 35.2°F1.8°C 34.4°F1.3°C 97% 1.4 mph NNE2.3 kmh NNE 6.0 mph9.7 kmh 30.03 in1016.9 mb 0.00 in0.0 mm 0.00 in0.0 mm 1.11 in28.2 mm
08:35 PM 35.2°F1.8°C 34.4°F1.3°C 97% 1.0 mph NNE1.6 kmh NNE 12.0 mph19.3 kmh 30.03 in1016.9 mb 0.00 in0.0 mm 0.00 in0.0 mm 1.11 in28.2 mm
08:40 PM 35.1°F1.7°C 34.3°F1.3°C 97% 5.3 mph NE8.5 kmh NE 12.0 mph19.3 kmh 30.03 in1016.9 mb 0.00 in0.0 mm 0.00 in0.0 mm 1.11 in28.2 mm
08:45 PM 35.1°F1.7°C 34.3°F1.3°C 97% 1.8 mph NNE2.9 kmh NNE 12.0 mph19.3 kmh 30.03 in1016.9 mb 0.00 in0.0 mm 0.00 in0.0 mm 1.11 in28.2 mm
08:50 PM 35.1°F1.7°C 34.3°F1.3°C 97% 3.1 mph NE5.0 kmh NE 11.0 mph17.7 kmh 30.03 in1016.9 mb 0.00 in0.0 mm 0.00 in0.0 mm 1.11 in28.2 mm
08:55 PM 35.1°F1.7°C 34.3°F1.3°C 97% 1.9 mph N3.1 kmh N 11.0 mph17.7 kmh 30.03 in1016.9 mb 0.00 in0.0 mm 0.00 in0.0 mm 1.11 in28.2 mm
09:00 PM 35.1°F1.7°C 34.3°F1.3°C 97% 1.5 mph N2.4 kmh N 9.0 mph14.5 kmh 30.03 in1016.9 mb 0.00 in0.0 mm 0.00 in0.0 mm 1.11 in28.2 mm
09:05 PM 35.1°F1.7°C 34.3°F1.3°C 97% 2.4 mph NNE3.9 kmh NNE 8.0 mph12.9 kmh 30.03 in1016.9 mb 0.00 in0.0 mm 0.00 in0.0 mm 1.11 in28.2 mm
09:10 PM 35.1°F1.7°C 34.3°F1.3°C 97% 2.8 mph NNE4.5 kmh NNE 8.0 mph12.9 kmh 30.03 in1016.9 mb 0.00 in0.0 mm 0.00 in0.0 mm 1.11 in28.2 mm
09:15 PM 35.1°F1.7°C 34.3°F1.3°C 97% 1.6 mph NE2.6 kmh NE 8.0 mph12.9 kmh 30.03 in1016.9 mb 0.00 in0.0 mm 0.00 in0.0 mm 1.11 in28.2 mm
09:20 PM 35.1°F1.7°C 34.3°F1.3°C 97% 1.9 mph NNE3.1 kmh NNE 8.0 mph12.9 kmh 30.03 in1016.9 mb 0.00 in0.0 mm 0.00 in0.0 mm 1.11 in28.2 mm
09:25 PM 35.1°F1.7°C 34.3°F1.3°C 97% 2.2 mph NNE3.5 kmh NNE 8.0 mph12.9 kmh 30.03 in1016.9 mb 0.00 in0.0 mm 0.00 in0.0 mm 1.11 in28.2 mm
09:30 PM 35.1°F1.7°C 34.3°F1.3°C 97% 1.0 mph NW1.6 kmh NW 8.0 mph12.9 kmh 30.03 in1016.9 mb 0.00 in0.0 mm 0.00 in0.0 mm 1.11 in28.2 mm
09:35 PM 35.1°F1.7°C 34.3°F1.3°C 97% 2.1 mph N3.4 kmh N 5.0 mph8.0 kmh 30.03 in1016.9 mb 0.00 in0.0 mm 0.00 in0.0 mm 1.11 in28.2 mm
09:40 PM 35.2°F1.8°C 34.4°F1.3°C 97% 1.0 mph N1.6 kmh N 5.0 mph8.0 kmh 30.03 in1016.9 mb 0.00 in0.0 mm 0.00 in0.0 mm 1.11 in28.2 mm
09:45 PM 35.2°F1.8°C 34.4°F1.3°C 97% 1.0 mph NNW1.6 kmh NNW 3.0 mph4.8 kmh 30.03 in1016.9 mb 0.00 in0.0 mm 0.00 in0.0 mm 1.11 in28.2 mm
09:50 PM 35.2°F1.8°C 34.4°F1.3°C 97% 1.5 mph NNE2.4 kmh NNE 3.0 mph4.8 kmh 30.04 in1017.3 mb 0.00 in0.0 mm 0.00 in0.0 mm 1.11 in28.2 mm
09:55 PM 35.2°F1.8°C 34.4°F1.3°C 97% 1.0 mph NW1.6 kmh NW 3.0 mph4.8 kmh 30.04 in1017.3 mb 0.00 in0.0 mm 0.00 in0.0 mm 1.11 in28.2 mm
10:00 PM 35.3°F1.8°C 34.5°F1.4°C 97% 1.0 mph N1.6 kmh N 2.0 mph3.2 kmh 30.04 in1017.3 mb 0.00 in0.0 mm 0.00 in0.0 mm 1.11 in28.2 mm
10:05 PM 35.3°F1.8°C 34.5°F1.4°C 97% 1.3 mph NNW2.1 kmh NNW 2.0 mph3.2 kmh 30.04 in1017.3 mb 0.00 in0.0 mm 0.00 in0.0 mm 1.11 in28.2 mm
10:10 PM 35.3°F1.8°C 34.5°F1.4°C 97% 1.0 mph NW1.6 kmh NW 2.0 mph3.2 kmh 30.04 in1017.3 mb 0.00 in0.0 mm 0.00 in0.0 mm 1.11 in28.2 mm
10:15 PM 35.3°F1.8°C 34.5°F1.4°C 97% 2.0 mph NNW3.2 kmh NNW 3.0 mph4.8 kmh 30.04 in1017.3 mb 0.00 in0.0 mm 0.00 in0.0 mm 1.11 in28.2 mm
10:20 PM 35.3°F1.8°C 34.5°F1.4°C 97% 1.7 mph NNW2.7 kmh NNW 3.0 mph4.8 kmh 30.04 in1017.3 mb 0.00 in0.0 mm 0.00 in0.0 mm 1.11 in28.2 mm
10:24 PM 35.3°F1.8°C 34.5°F1.4°C 97% Calm Calm 3.0 mph4.8 kmh 30.04 in1017.3 mb 0.00 in0.0 mm 0.00 in0.0 mm 1.11 in28.2 mm
10:29 PM 35.4°F1.9°C 34.6°F1.4°C 97% 1.0 mph NNE1.6 kmh NNE 3.0 mph4.8 kmh 30.04 in1017.3 mb 0.00 in0.0 mm 0.00 in0.0 mm 1.11 in28.2 mm
10:34 PM 35.4°F1.9°C 34.6°F1.4°C 97% 1.0 mph NW1.6 kmh NW 3.0 mph4.8 kmh 30.04 in1017.3 mb 0.00 in0.0 mm 0.00 in0.0 mm 1.11 in28.2 mm
10:39 PM 35.5°F1.9°C 34.7°F1.5°C 97% 1.3 mph NW2.1 kmh NW 3.0 mph4.8 kmh 30.05 in1017.6 mb 0.00 in0.0 mm 0.00 in0.0 mm 1.11 in28.2 mm
10:44 PM 35.5°F1.9°C 34.7°F1.5°C 97% 1.0 mph N1.6 kmh N 2.0 mph3.2 kmh 30.04 in1017.3 mb 0.00 in0.0 mm 0.00 in0.0 mm 1.11 in28.2 mm
10:49 PM 35.5°F1.9°C 34.7°F1.5°C 97% 1.0 mph NW1.6 kmh NW 2.0 mph3.2 kmh 30.04 in1017.3 mb 0.00 in0.0 mm 0.00 in0.0 mm 1.11 in28.2 mm
10:54 PM 35.5°F1.9°C 34.7°F1.5°C 97% Calm Calm 2.0 mph3.2 kmh 30.04 in1017.3 mb 0.00 in0.0 mm 0.00 in0.0 mm 1.11 in28.2 mm
10:59 PM 35.5°F1.9°C 34.7°F1.5°C 97% 1.0 mph NNE1.6 kmh NNE 2.0 mph3.2 kmh 30.05 in1017.6 mb 0.00 in0.0 mm 0.00 in0.0 mm 1.11 in28.2 mm
11:04 PM 35.6°F2.0°C 34.8°F1.6°C 97% Calm Calm 2.0 mph3.2 kmh 30.05 in1017.6 mb 0.00 in0.0 mm 0.00 in0.0 mm 1.11 in28.2 mm
11:09 PM 35.6°F2.0°C 34.8°F1.6°C 97% 1.2 mph NW1.9 kmh NW 2.0 mph3.2 kmh 30.05 in1017.6 mb 0.00 in0.0 mm 0.00 in0.0 mm 1.11 in28.2 mm
11:14 PM 35.6°F2.0°C 34.8°F1.6°C 97% 1.8 mph NNW2.9 kmh NNW 4.0 mph6.4 kmh 30.05 in1017.6 mb 0.00 in0.0 mm 0.00 in0.0 mm 1.11 in28.2 mm
11:19 PM 35.7°F2.1°C 34.9°F1.6°C 97% Calm Calm 4.0 mph6.4 kmh 30.05 in1017.6 mb 0.00 in0.0 mm 0.00 in0.0 mm 1.11 in28.2 mm
11:24 PM 35.7°F2.1°C 34.9°F1.6°C 97% Calm Calm 4.0 mph6.4 kmh 30.05 in1017.6 mb 0.00 in0.0 mm 0.00 in0.0 mm 1.11 in28.2 mm
11:33 PM 35.8°F2.1°C 35.0°F1.7°C 97% Calm Calm 4.0 mph6.4 kmh 30.05 in1017.6 mb 0.00 in0.0 mm 0.00 in0.0 mm 1.11 in28.2 mm
11:38 PM 35.8°F2.1°C 35.0°F1.7°C 97% Calm Calm 1.0 mph1.6 kmh 30.05 in1017.6 mb 0.00 in0.0 mm 0.00 in0.0 mm 1.11 in28.2 mm
11:43 PM 35.9°F2.2°C 35.1°F1.7°C 97% Calm Calm 1.0 mph1.6 kmh 30.05 in1017.6 mb 0.00 in0.0 mm 0.00 in0.0 mm 1.11 in28.2 mm
11:47 PM 35.9°F2.2°C 35.1°F1.7°C 97% 1.2 mph NW1.9 kmh NW 2.0 mph3.2 kmh 30.05 in1017.6 mb 0.00 in0.0 mm 0.00 in0.0 mm 1.11 in28.2 mm
11:53 PM 36.0°F2.2°C 35.2°F1.8°C 97% 1.0 mph NW1.6 kmh NW 2.0 mph3.2 kmh 30.05 in1017.6 mb 0.00 in0.0 mm 0.00 in0.0 mm 1.11 in28.2 mm
11:58 PM 36.1°F2.3°C 35.3°F1.8°C 97% 1.0 mph NW1.6 kmh NW 2.0 mph3.2 kmh 30.05 in1017.6 mb 0.00 in0.0 mm 0.00 in0.0 mm 1.11 in28.2 mm